Time;durP1;ratioP1;P1;durP2;ratioP2;P2;SDS_P1;SDS_P2;PMS_P1;PMS_P2;Temp;Humidity;BMP_temperature;BMP_pressure;BME280_temperature;BME280_humidity;BME280_pressure;Samples;Min_cycle;Max_cycle;Signal;HPM_P1;HPM_P2
2021/12/19 00:01:02;;;;;;;17.63;8.23;;;;;;;12.27;55.54;103172.06;5028385;28;20045;-82
2021/12/19 00:08:53;;;;;;;14.50;7.38;;;;;;;12.24;55.65;103160.41;5038279;28;20094;-82
2021/12/19 00:11:21;;;;;;;13.70;7.00;;;;;;;12.26;55.54;103166.69;5033713;28;20061;-82
2021/12/19 00:13:49;;;;;;;13.82;7.25;;;;;;;12.25;55.65;103156.72;5031575;28;20091;-82
2021/12/19 00:16:16;;;;;;;14.73;7.70;;;;;;;12.24;55.50;103153.13;5033628;28;20457;-82
2021/12/19 00:18:46;;;;;;;14.18;7.50;;;;;;;12.25;55.62;103154.00;5033092;28;20376;-82
2021/12/19 00:21:17;;;;;;;13.73;7.65;;;;;;;12.24;55.55;103150.41;5032802;28;20076;-82
2021/12/19 00:23:46;;;;;;;14.25;7.65;;;;;;;12.25;55.81;103148.56;5024222;28;20053;-83
2021/12/19 00:26:15;;;;;;;12.85;7.30;;;;;;;12.26;55.65;103147.63;5015544;28;20099;-82
2021/12/19 00:28:43;;;;;;;13.57;7.13;;;;;;;12.25;55.62;103152.19;5031843;28;20480;-82
2021/12/19 00:31:10;;;;;;;12.70;6.90;;;;;;;12.24;55.47;103144.94;5015234;28;20567;-82
2021/12/19 00:33:38;;;;;;;12.93;7.30;;;;;;;12.24;55.69;103135.88;5014809;28;20045;-82
2021/12/19 00:36:06;;;;;;;13.55;7.50;;;;;;;12.24;55.44;103139.50;5032244;28;20421;-82
2021/12/19 00:38:33;;;;;;;13.38;7.32;;;;;;;12.25;55.34;103134.94;5031334;28;20045;-82
2021/12/19 00:41:01;;;;;;;13.77;7.95;;;;;;;12.25;55.84;103143.13;5032107;28;20107;-82
2021/12/19 00:46:06;;;;;;;12.05;6.82;;;;;;;12.23;55.53;103142.28;5032187;28;20057;-82
2021/12/19 00:48:53;;;;;;;;;;;;;;;12.02;56.30;103138.53;5032114;28;20053;-82
2021/12/19 00:51:23;;;;;;;10.25;5.95;;;;;;;12.21;55.66;103134.16;5031228;28;20019;-82
2021/12/19 00:53:51;;;;;;;11.23;6.18;;;;;;;12.23;55.67;103132.28;5030528;28;20501;-82
2021/12/19 00:56:18;;;;;;;13.13;7.40;;;;;;;12.23;55.49;103132.28;5032641;28;20037;-82
2021/12/19 00:58:45;;;;;;;12.50;7.43;;;;;;;12.23;55.63;103131.38;5032166;28;20411;-82
2021/12/19 01:01:14;;;;;;;11.73;7.25;;;;;;;12.24;55.21;103131.34;5032869;28;20441;-83
2021/12/19 01:03:44;;;;;;;13.63;6.90;;;;;;;12.23;55.70;103134.09;5014466;28;20042;-82
2021/12/19 01:06:11;;;;;;;13.45;7.40;;;;;;;12.22;55.36;103122.31;5026174;28;20060;-82
2021/12/19 01:08:38;;;;;;;14.15;7.40;;;;;;;12.21;55.72;103117.81;5038932;28;20068;-82
2021/12/19 01:11:05;;;;;;;13.65;7.43;;;;;;;12.22;55.74;103124.16;5020387;28;20052;-82
2021/12/19 01:13:32;;;;;;;13.77;7.90;;;;;;;12.22;55.56;103121.44;5013965;28;20099;-82
2021/12/19 01:16:02;;;;;;;14.32;7.90;;;;;;;12.22;55.61;103124.16;5030670;28;20111;-82
2021/12/19 01:18:29;;;;;;;13.02;7.28;;;;;;;12.21;55.52;103123.25;5032095;28;20485;-82
2021/12/19 01:20:56;;;;;;;14.55;7.75;;;;;;;12.20;55.55;103111.47;5029286;28;20073;-83
2021/12/19 01:23:22;;;;;;;11.93;6.88;;;;;;;12.22;55.58;103107.81;5031216;28;20084;-82
2021/12/19 01:25:50;;;;;;;14.25;8.07;;;;;;;12.23;55.72;103115.03;5031986;28;20092;-82
2021/12/19 01:28:18;;;;;;;13.00;7.43;;;;;;;12.22;55.67;103115.97;5032082;28;20053;-82
2021/12/19 01:30:45;;;;;;;12.25;6.95;;;;;;;12.22;55.58;103102.38;5031863;28;20053;-82
2021/12/19 01:33:11;;;;;;;14.52;7.90;;;;;;;12.22;55.54;103102.38;5030125;28;20072;-82
2021/12/19 01:35:38;;;;;;;13.90;7.05;;;;;;;12.22;55.71;103105.09;5033486;28;20463;-82
2021/12/19 01:38:05;;;;;;;13.60;7.70;;;;;;;12.20;55.84;103106.03;5015218;28;20136;-83
2021/12/19 01:40:32;;;;;;;13.77;7.90;;;;;;;12.21;55.73;103104.19;5012771;28;20130;-82
2021/12/19 01:42:59;;;;;;;14.75;8.07;;;;;;;12.20;55.67;103105.13;5029007;28;20049;-82
2021/12/19 01:45:30;;;;;;;13.00;7.82;;;;;;;12.23;55.77;103098.69;5026361;28;20056;-82
2021/12/19 01:47:58;;;;;;;14.23;7.63;;;;;;;12.21;55.56;103098.75;5031308;28;20382;-82
2021/12/19 01:50:27;;;;;;;12.63;7.43;;;;;;;12.22;55.77;103100.53;5047344;28;20041;-82
2021/12/19 01:52:54;;;;;;;13.23;7.30;;;;;;;12.20;55.52;103099.69;5028548;28;20586;-82
2021/12/19 01:55:20;;;;;;;12.70;7.25;;;;;;;12.19;55.24;103096.09;5047340;28;20050;-82
2021/12/19 01:57:48;;;;;;;11.88;6.70;;;;;;;12.19;55.50;103089.75;5045945;28;20103;-82
2021/12/19 02:00:47;;;;;;;12.45;6.55;;;;;;;12.18;55.70;103096.16;5032125;28;20084;-82
2021/12/19 02:03:15;;;;;;;11.38;6.70;;;;;;;12.17;55.89;103088.94;5024034;28;20065;-82
2021/12/19 02:05:44;;;;;;;12.18;6.82;;;;;;;12.19;55.83;103089.75;5030919;28;20041;-83
2021/12/19 02:08:12;;;;;;;12.00;6.53;;;;;;;12.19;55.91;103087.91;5027609;28;20132;-82
2021/12/19 02:10:41;;;;;;;12.13;7.22;;;;;;;12.18;55.95;103086.16;5010939;28;20104;-82
2021/12/19 02:13:10;;;;;;;12.52;7.05;;;;;;;12.19;55.91;103079.75;5030483;28;20068;-82
2021/12/19 02:15:40;;;;;;;10.13;5.95;;;;;;;12.20;55.67;103083.34;5030325;28;20068;-82
2021/12/19 02:18:13;;;;;;;11.68;6.03;;;;;;;12.21;55.72;103082.41;5012546;28;20552;-82
2021/12/19 02:20:47;;;;;;;10.23;6.03;;;;;;;12.20;55.97;103077.91;5028994;28;20073;-82
2021/12/19 02:23:14;;;;;;;11.75;6.53;;;;;;;12.19;55.71;103084.28;5029851;28;20080;-82
2021/12/19 02:25:41;;;;;;;10.65;6.00;;;;;;;12.20;55.45;103083.34;5030172;28;20489;-82
2021/12/19 02:28:08;;;;;;;10.90;5.82;;;;;;;12.20;55.73;103080.63;5012781;28;20069;-82
2021/12/19 02:30:36;;;;;;;10.05;5.22;;;;;;;12.20;55.88;103072.47;5013917;28;20080;-82
2021/12/19 02:33:06;;;;;;;11.45;6.30;;;;;;;12.23;55.38;103076.91;5027859;28;20053;-82
2021/12/19 02:35:34;;;;;;;9.88;5.70;;;;;;;12.19;55.51;103067.97;5030776;28;20057;-82
2021/12/19 02:48:49;;;;;;;10.07;5.75;;;;;;;12.17;55.53;103058.97;5029668;28;20788;-82
2021/12/19 02:51:16;;;;;;;11.57;6.18;;;;;;;12.16;55.67;103052.66;5030001;28;20083;-82
2021/12/19 02:53:44;;;;;;;9.73;5.60;;;;;;;12.19;55.51;103048.91;5027807;28;20049;-82
2021/12/19 02:56:11;;;;;;;10.25;5.90;;;;;;;12.18;55.34;103047.16;5012683;28;20128;-82
2021/12/19 02:58:42;;;;;;;11.13;5.82;;;;;;;12.20;55.58;103059.72;5005942;28;20469;-82
2021/12/19 03:01:13;;;;;;;11.05;6.43;;;;;;;12.17;55.74;103051.69;5025077;28;20069;-82
2021/12/19 03:03:40;;;;;;;11.00;5.65;;;;;;;12.16;55.53;103047.19;5016831;28;20049;-82
2021/12/19 03:06:07;;;;;;;10.57;5.78;;;;;;;12.16;55.53;103047.19;5029339;28;20096;-83
2021/12/19 03:08:35;;;;;;;11.02;5.72;;;;;;;12.17;55.47;103051.69;5023502;28;20080;-83
2021/12/19 03:19:10;;;;;;;11.43;6.00;;;;;;;12.13;55.89;103028.25;5029456;28;20136;-83
2021/12/19 03:21:37;;;;;;;10.02;5.50;;;;;;;12.14;55.95;103021.84;5029667;28;20037;-83
2021/12/19 03:24:11;;;;;;;11.07;5.68;;;;;;;12.18;55.71;103028.97;5011047;28;20046;-83
2021/12/19 03:26:38;;;;;;;9.27;5.57;;;;;;;12.13;55.71;103025.53;5011776;28;20443;-83
2021/12/19 03:29:04;;;;;;;10.02;5.65;;;;;;;12.13;55.91;103022.78;5028369;28;20056;-82
2021/12/19 03:31:31;;;;;;;10.57;5.97;;;;;;;12.13;55.88;103020.06;5029549;28;20448;-83
2021/12/19 03:33:59;;;;;;;9.50;5.43;;;;;;;12.13;56.01;103017.34;5044139;28;20041;-83
2021/12/19 03:36:27;;;;;;;10.57;5.65;;;;;;;12.12;55.87;103015.56;5028585;28;20038;-83
2021/12/19 03:38:58;;;;;;;10.45;5.35;;;;;;;12.13;55.73;103011.91;5020499;28;20054;-83
2021/12/19 03:41:34;;;;;;;11.13;5.93;;;;;;;12.15;55.90;103015.47;5029014;28;20045;-83
2021/12/19 03:44:03;;;;;;;11.50;6.18;;;;;;;12.14;55.99;103010.97;5034069;28;20050;-83
2021/12/19 03:46:30;;;;;;;11.15;6.45;;;;;;;12.14;56.04;103010.06;5029101;28;20504;-83
2021/12/19 03:48:59;;;;;;;10.13;5.95;;;;;;;12.15;55.83;103011.84;5018423;28;20072;-83
2021/12/19 03:51:25;;;;;;;11.82;6.00;;;;;;;12.14;55.69;103007.34;5029219;28;20149;-83
2021/12/19 03:53:52;;;;;;;10.02;5.82;;;;;;;12.15;56.26;103006.41;5026801;28;20065;-83
2021/12/19 03:56:19;;;;;;;9.15;5.53;;;;;;;12.14;56.22;103001.91;5029474;28;20169;-83
2021/12/19 03:58:46;;;;;;;9.20;5.63;;;;;;;12.15;55.86;103003.69;5011531;28;20591;-84
2021/12/19 04:01:13;;;;;;;10.82;5.88;;;;;;;12.15;56.28;102995.50;5011762;28;20087;-83
2021/12/19 04:03:40;;;;;;;10.70;5.93;;;;;;;12.14;55.90;102994.63;5028155;28;20041;-84
2021/12/19 04:06:07;;;;;;;8.93;5.47;;;;;;;12.14;56.13;102993.72;5027317;28;20128;-83
2021/12/19 04:08:34;;;;;;;9.27;5.75;;;;;;;12.15;55.91;102985.50;5031081;28;20041;-83
2021/12/19 04:11:01;;;;;;;9.10;5.40;;;;;;;12.15;55.78;102984.63;5030634;28;20053;-83
2021/12/19 04:13:27;;;;;;;10.43;5.50;;;;;;;12.13;55.88;102973.78;5037489;28;20099;-83
2021/12/19 04:15:54;;;;;;;9.95;5.82;;;;;;;12.14;55.67;102969.22;5011514;28;20077;-83
2021/12/19 04:18:21;;;;;;;10.57;5.22;;;;;;;12.14;55.81;102961.06;5014032;28;20044;-83
2021/12/19 04:20:48;;;;;;;10.75;5.53;;;;;;;12.14;55.77;102961.06;5027997;28;20045;-83
2021/12/19 04:23:15;;;;;;;8.95;5.13;;;;;;;12.13;55.67;102959.28;5027300;28;20076;-83
2021/12/19 04:25:45;;;;;;;10.00;5.50;;;;;;;12.11;56.03;102953.88;5029328;28;20088;-84
2021/12/19 04:28:13;;;;;;;9.45;5.38;;;;;;;12.11;55.98;102948.44;5028355;28;20056;-82
2021/12/19 04:30:40;;;;;;;9.68;5.18;;;;;;;12.10;55.82;102949.41;5019515;28;20076;-82
2021/12/19 04:33:11;;;;;;;8.63;5.38;;;;;;;12.11;56.01;102950.28;5014646;28;20135;-83
2021/12/19 04:35:44;;;;;;;10.30;5.28;;;;;;;12.12;55.92;102950.22;5028787;28;20081;-83
2021/12/19 04:41:50;;;;;;;8.57;4.50;;;;;;;12.02;56.44;102932.50;4948255;29;20341;-83
2021/12/19 04:52:57;;;;;;;8.88;4.90;;;;;;;12.06;56.41;102935.97;5027220;28;20053;-83
2021/12/19 05:01:34;;;;;;;7.97;4.80;;;;;;;12.06;56.16;102939.59;5021122;28;20084;-82
2021/12/19 05:16:43;;;;;;;8.27;4.90;;;;;;;12.05;56.06;102924.19;5036970;28;20520;-83
2021/12/19 05:19:34;;;;;;;9.13;4.85;;;;;;;12.05;55.92;102923.31;5016239;28;20524;-83
2021/12/19 05:22:02;;;;;;;8.80;4.85;;;;;;;12.04;56.22;102927.84;5030803;28;20056;-83
2021/12/19 05:27:06;;;;;;;9.05;4.60;;;;;;;12.07;56.17;102913.25;5029604;28;20041;-82
2021/12/19 05:29:34;;;;;;;8.13;4.35;;;;;;;12.07;56.34;102918.69;5034777;28;20080;-84
2021/12/19 05:32:02;;;;;;;9.50;5.05;;;;;;;12.06;56.29;102923.25;5030780;28;20443;-83
2021/12/19 05:34:30;;;;;;;7.05;4.05;;;;;;;12.07;55.98;102924.13;5046367;28;20057;-83
2021/12/19 05:45:17;;;;;;;8.05;3.95;;;;;;;12.02;56.13;102908.00;5031654;28;20052;-83
2021/12/19 05:47:50;;;;;;;7.68;3.75;;;;;;;12.03;55.80;102907.03;5029541;28;20056;-84
2021/12/19 05:50:20;;;;;;;8.70;4.10;;;;;;;12.02;55.98;102910.72;5047093;28;20049;-83
2021/12/19 05:53:08;;;;;;;8.00;4.22;;;;;;;12.03;56.12;102904.31;5029631;28;20088;-83
2021/12/19 05:55:34;;;;;;;8.80;4.25;;;;;;;12.02;56.30;102909.84;4950671;29;20054;-83
2021/12/19 05:58:01;;;;;;;8.65;4.50;;;;;;;12.03;56.34;102900.69;4933079;29;20091;-83
2021/12/19 06:00:28;;;;;;;10.13;5.03;;;;;;;12.03;56.09;102907.03;4970319;28;20153;-83
2021/12/19 06:02:55;;;;;;;10.25;5.10;;;;;;;12.03;56.08;102908.84;4952763;28;20055;-82
2021/12/19 06:05:21;;;;;;;8.82;4.75;;;;;;;12.03;56.25;102907.03;4953326;28;20553;-83
2021/12/19 06:07:48;;;;;;;8.88;4.65;;;;;;;12.04;56.06;102899.75;4972112;28;20050;-83
2021/12/19 06:10:15;;;;;;;7.72;4.10;;;;;;;12.04;55.99;102900.63;4965905;28;20068;-83
2021/12/19 06:12:42;;;;;;;8.57;4.35;;;;;;;12.05;55.83;102894.25;4969590;28;20050;-83
2021/12/19 06:15:10;;;;;;;8.18;4.35;;;;;;;12.06;56.13;102889.69;4969154;28;20054;-83
2021/12/19 06:17:42;;;;;;;9.07;4.47;;;;;;;12.06;56.34;102885.13;4952843;28;20069;-83
2021/12/19 06:20:09;;;;;;;9.05;4.70;;;;;;;12.05;56.25;102887.91;4968687;28;20053;-83
2021/12/19 06:22:38;;;;;;;8.45;4.40;;;;;;;12.06;55.93;102884.25;4937500;28;20474;-84
2021/12/19 06:25:06;;;;;;;10.82;4.63;;;;;;;12.04;56.10;102884.28;4947290;28;20090;-83
2021/12/19 06:27:32;;;;;;;9.77;4.93;;;;;;;12.03;56.10;102879.78;4941043;28;20566;-84
2021/12/19 06:29:59;;;;;;;8.90;4.45;;;;;;;12.04;55.87;102883.41;4956919;28;20078;-83
2021/12/19 06:32:26;;;;;;;8.50;4.28;;;;;;;12.04;55.99;102884.28;4971132;28;20053;-83
2021/12/19 06:34:53;;;;;;;9.27;4.57;;;;;;;12.04;55.96;102883.41;5024390;28;20450;-83
2021/12/19 06:37:20;;;;;;;9.85;4.40;;;;;;;12.04;55.85;102886.13;5028534;28;20037;-83
2021/12/19 06:39:46;;;;;;;9.65;4.68;;;;;;;12.02;56.07;102894.38;5027147;28;20049;-83
2021/12/19 06:42:13;;;;;;;12.07;5.22;;;;;;;12.02;56.17;102888.94;5028860;28;20049;-83
2021/12/19 06:44:40;;;;;;;9.10;5.05;;;;;;;12.03;55.97;102893.41;5013672;28;20053;-83
2021/12/19 06:47:07;;;;;;;9.65;4.78;;;;;;;12.02;55.86;102893.50;4998457;28;20045;-84
2021/12/19 06:49:34;;;;;;;10.68;4.95;;;;;;;12.00;55.92;102890.84;5031677;28;20075;-83
2021/12/19 06:52:00;;;;;;;10.52;5.35;;;;;;;11.99;55.82;102883.63;5030101;28;20045;-83
2021/12/19 06:54:27;;;;;;;9.98;4.78;;;;;;;11.98;55.79;102884.56;5028937;28;20079;-83
2021/12/19 06:56:54;;;;;;;10.15;4.63;;;;;;;11.97;55.70;102885.50;5030198;28;20132;-82
2021/12/19 06:59:21;;;;;;;9.88;4.72;;;;;;;11.97;55.83;102880.06;5028838;28;20046;-84
2021/12/19 07:01:49;;;;;;;11.77;5.15;;;;;;;11.96;55.98;102883.72;5038659;28;20068;-84
2021/12/19 07:04:16;;;;;;;10.60;4.93;;;;;;;11.95;55.60;102887.38;5004592;28;20164;-84
2021/12/19 07:06:43;;;;;;;10.95;5.82;;;;;;;11.95;55.76;102878.34;5045206;28;20045;-83
2021/12/19 07:09:10;;;;;;;10.13;5.10;;;;;;;11.95;55.72;102875.59;5036317;28;20069;-84
2021/12/19 07:11:39;;;;;;;10.82;5.03;;;;;;;11.96;55.43;102871.94;5031721;28;20046;-84
2021/12/19 07:14:06;;;;;;;9.93;4.85;;;;;;;11.93;55.50;102866.66;5029499;28;20065;-84
2021/12/19 07:16:33;;;;;;;9.23;4.30;;;;;;;11.93;55.54;102872.09;5028764;28;20045;-83
2021/12/19 07:19:00;;;;;;;8.32;4.25;;;;;;;11.92;55.58;102876.66;5028288;28;20107;-83
2021/12/19 07:21:29;;;;;;;8.23;4.18;;;;;;;11.91;55.44;102874.88;5045562;28;20449;-83
2021/12/19 07:23:56;;;;;;;7.20;3.88;;;;;;;11.90;55.75;102880.38;5027384;28;20056;-84
2021/12/19 07:26:23;;;;;;;7.90;3.50;;;;;;;11.90;55.61;102875.81;5041360;28;20052;-83
2021/12/19 07:28:51;;;;;;;7.03;3.55;;;;;;;11.89;55.62;102870.41;5029044;28;20160;-83
2021/12/19 07:31:19;;;;;;;6.85;3.47;;;;;;;11.91;55.53;102865.81;5028557;28;20095;-84
2021/12/19 07:33:46;;;;;;;8.95;3.83;;;;;;;11.90;55.55;102864.03;5011899;28;20500;-84
2021/12/19 07:36:14;;;;;;;7.35;3.83;;;;;;;11.90;55.38;102861.31;5029810;28;20049;-84
2021/12/19 07:38:53;;;;;;;8.80;4.18;;;;;;;11.89;55.44;102862.25;5024613;28;20277;-83
2021/12/19 07:41:20;;;;;;;9.05;4.00;;;;;;;11.87;55.42;102856.88;5028240;28;20054;-82
2021/12/19 07:43:46;;;;;;;8.60;4.63;;;;;;;11.87;55.42;102855.97;5029528;28;20053;-83
2021/12/19 07:46:13;;;;;;;7.03;3.95;;;;;;;11.86;55.45;102862.41;5006003;28;20054;-83
2021/12/19 07:48:39;;;;;;;7.50;3.72;;;;;;;11.84;55.36;102857.00;5030060;28;20045;-83
2021/12/19 07:51:08;;;;;;;6.10;3.20;;;;;;;11.84;55.26;102858.84;5044865;28;20046;-83
2021/12/19 07:53:35;;;;;;;7.03;3.45;;;;;;;11.81;55.24;102849.84;5032754;28;20105;-83
2021/12/19 07:56:02;;;;;;;7.60;3.58;;;;;;;11.80;55.45;102853.50;5033050;28;20137;-83
2021/12/19 07:58:29;;;;;;;6.15;2.90;;;;;;;11.80;55.23;102858.97;5028781;28;20053;-83
2021/12/19 08:00:55;;;;;;;6.05;2.80;;;;;;;11.80;55.56;102858.06;5027864;28;20484;-83
2021/12/19 08:03:22;;;;;;;5.78;2.50;;;;;;;11.80;55.67;102858.06;5029953;28;20057;-83
2021/12/19 08:05:50;;;;;;;5.55;2.53;;;;;;;11.80;55.47;102853.50;5011583;28;20064;-82
2021/12/19 08:08:21;;;;;;;4.38;2.53;;;;;;;11.79;55.47;102859.00;5032557;28;20500;-83
2021/12/19 08:13:14;;;;;;;6.35;2.30;;;;;;;11.78;55.43;102857.22;5029025;28;20054;-83
2021/12/19 08:15:41;;;;;;;5.28;2.47;;;;;;;11.79;55.49;102842.69;5028763;28;20049;-84
2021/12/19 08:18:08;;;;;;;4.88;2.38;;;;;;;11.78;55.49;102851.78;5044694;28;20041;-84
2021/12/19 08:20:36;;;;;;;6.22;3.00;;;;;;;11.79;55.22;102848.13;5031973;28;20098;-84
2021/12/19 08:23:06;;;;;;;5.47;2.67;;;;;;;11.77;55.51;102841.88;5028885;28;20111;-84
2021/12/19 08:25:32;;;;;;;6.90;2.92;;;;;;;11.77;55.43;102847.31;5029905;28;20111;-84
2021/12/19 08:27:59;;;;;;;5.40;2.60;;;;;;;11.77;55.47;102850.06;5010943;28;20066;-84
2021/12/19 08:30:27;;;;;;;6.18;2.90;;;;;;;11.76;55.41;102846.44;5032561;28;20053;-85
2021/12/19 08:32:56;;;;;;;6.03;2.60;;;;;;;11.75;55.57;102841.94;5000317;28;20053;-85
2021/12/19 08:35:23;;;;;;;6.30;3.10;;;;;;;11.76;55.57;102838.28;5033418;28;20076;-88
2021/12/19 08:37:50;;;;;;;6.18;2.85;;;;;;;11.75;55.43;102833.78;5017476;28;20504;-84
2021/12/19 08:40:17;;;;;;;5.97;2.67;;;;;;;11.76;55.76;102834.66;5043161;28;20045;-87
2021/12/19 08:42:46;;;;;;;5.00;2.60;;;;;;;11.77;55.44;102831.88;5033687;28;20053;-85
2021/12/19 08:45:15;;;;;;;5.60;2.75;;;;;;;11.76;55.86;102837.38;5031973;28;20558;-84
2021/12/19 08:47:42;;;;;;;4.95;2.60;;;;;;;11.76;55.85;102830.09;5014308;28;20107;-85
2021/12/19 08:50:15;;;;;;;5.93;2.88;;;;;;;11.77;55.81;102833.72;5026080;28;20455;-84
2021/12/19 08:52:45;;;;;;;5.88;2.83;;;;;;;11.78;55.68;102828.19;5018760;28;20126;-84
2021/12/19 08:55:18;;;;;;;6.70;3.17;;;;;;;11.79;55.67;102826.34;5035432;28;20415;-85
2021/12/19 08:57:48;;;;;;;8.10;3.53;;;;;;;11.79;55.62;102821.81;5028957;28;20053;-85
2021/12/19 09:00:17;;;;;;;5.10;2.75;;;;;;;11.80;55.62;102822.69;5033636;28;20053;-85
2021/12/19 09:02:49;;;;;;;5.88;3.10;;;;;;;11.80;55.68;102823.56;5013683;28;20057;-86
2021/12/19 09:05:17;;;;;;;6.22;3.47;;;;;;;11.80;55.94;102819.97;5020708;28;20057;-86
2021/12/19 09:07:44;;;;;;;6.68;3.60;;;;;;;11.80;55.75;102814.53;5051325;28;20146;-86
2021/12/19 09:10:11;;;;;;;6.50;3.42;;;;;;;11.80;55.86;102820.84;5015683;28;20053;-86
2021/12/19 09:12:38;;;;;;;8.35;3.75;;;;;;;11.81;55.76;102813.59;5047108;28;20045;-87
2021/12/19 09:15:06;;;;;;;5.25;2.72;;;;;;;11.81;56.17;102822.63;5035113;28;20053;-84
2021/12/19 09:17:33;;;;;;;7.07;3.42;;;;;;;11.81;56.01;102816.31;5028537;28;20045;-85
2021/12/19 09:20:00;;;;;;;6.45;3.28;;;;;;;11.82;56.06;102818.97;5032690;28;20049;-86
2021/12/19 09:22:27;;;;;;;6.13;3.15;;;;;;;11.83;55.87;102828.03;5028889;28;20042;-86
2021/12/19 09:25:13;;;;;;;6.85;3.20;;;;;;;11.82;55.75;102829.84;5025028;28;20455;-85
2021/12/19 09:27:43;;;;;;;7.22;3.50;;;;;;;11.86;55.75;102827.03;5005746;28;20077;-84
2021/12/19 09:30:10;;;;;;;6.43;3.33;;;;;;;11.84;55.85;102829.81;5026764;28;20049;-85
2021/12/19 09:32:39;;;;;;;6.47;2.95;;;;;;;11.84;55.82;102824.34;5012028;28;20049;-85
2021/12/19 09:35:07;;;;;;;5.47;3.17;;;;;;;11.85;55.90;102820.69;5031819;28;20045;-84
2021/12/19 09:37:36;;;;;;;6.60;3.20;;;;;;;11.85;55.94;102823.41;5028263;28;20049;-87
2021/12/19 09:40:20;;;;;;;7.32;3.33;;;;;;;11.86;56.22;102816.13;5030795;28;20470;-85
2021/12/19 09:42:50;;;;;;;5.78;3.00;;;;;;;11.87;56.45;102812.44;5027283;28;20126;-86
2021/12/19 09:45:18;;;;;;;6.43;2.83;;;;;;;11.88;56.01;102816.94;5021594;28;20098;-85
2021/12/19 09:47:45;;;;;;;4.90;2.60;;;;;;;11.88;55.93;102811.50;5010087;28;20045;-80
2021/12/19 09:50:13;;;;;;;5.65;2.67;;;;;;;11.89;56.20;102822.31;5031941;28;20290;-85
2021/12/19 09:52:39;;;;;;;4.80;2.30;;;;;;;11.89;56.03;102816.88;5028725;28;20053;-84
2021/12/19 09:55:06;;;;;;;6.15;2.65;;;;;;;11.89;55.97;102811.44;5030973;28;20053;-85
2021/12/19 09:57:33;;;;;;;4.20;2.40;;;;;;;11.90;56.14;102802.31;5029645;28;20057;-85
2021/12/19 10:00:00;;;;;;;5.13;2.65;;;;;;;11.91;55.73;102811.38;5031730;28;20058;-84
2021/12/19 10:02:27;;;;;;;5.85;2.50;;;;;;;11.91;56.16;102800.50;5029296;28;20086;-86
2021/12/19 10:04:54;;;;;;;5.05;2.60;;;;;;;11.91;56.13;102804.09;5013536;28;20512;-85
2021/12/19 10:07:24;;;;;;;4.85;2.67;;;;;;;11.92;56.05;102794.97;5011995;28;20053;-85
2021/12/19 10:10:01;;;;;;;4.18;2.20;;;;;;;11.94;55.76;102784.91;5028260;28;20103;-85
2021/12/19 10:15:33;;;;;;;3.85;2.00;;;;;;;11.92;55.76;102789.53;5038309;28;20523;-85
2021/12/19 10:18:06;;;;;;;4.22;2.00;;;;;;;11.95;56.07;102785.78;5041042;28;20045;-85
2021/12/19 10:20:46;;;;;;;4.07;2.30;;;;;;;11.94;56.05;102781.31;5019185;28;20069;-85
2021/12/19 10:23:20;;;;;;;4.05;2.17;;;;;;;11.94;55.85;102775.88;5028242;28;20555;-86
2021/12/19 10:26:16;;;;;;;3.58;1.90;;;;;;;11.91;56.25;102768.72;5028818;28;20050;-83
2021/12/19 10:28:55;;;;;;;3.78;1.92;;;;;;;11.96;56.08;102760.34;5008484;28;20045;-83
2021/12/19 10:31:28;;;;;;;3.63;1.92;;;;;;;11.96;56.02;102766.66;5011895;28;20033;-85
2021/12/19 10:33:55;;;;;;;3.88;1.95;;;;;;;11.95;56.23;102762.16;5028309;28;20464;-85
2021/12/19 10:36:23;;;;;;;3.85;2.03;;;;;;;11.96;55.89;102765.78;5030400;28;20037;-84
2021/12/19 10:38:56;;;;;;;3.38;1.80;;;;;;;11.97;56.02;102759.38;5028445;28;20045;-84
2021/12/19 10:41:33;;;;;;;3.67;1.80;;;;;;;11.99;55.96;102757.50;5025735;28;20124;-85
2021/12/19 10:44:11;;;;;;;3.80;1.90;;;;;;;11.98;55.78;102747.56;5023616;28;20041;-84
2021/12/19 10:46:41;;;;;;;3.78;1.77;;;;;;;11.98;56.20;102753.00;5040963;28;20037;-83
2021/12/19 10:49:32;;;;;;;3.83;2.00;;;;;;;11.99;56.55;102742.06;5028539;28;20049;-83
2021/12/19 10:52:01;;;;;;;3.55;1.77;;;;;;;11.99;55.86;102738.44;5029339;28;20062;-82
2021/12/19 10:54:29;;;;;;;3.95;1.67;;;;;;;11.99;55.91;102738.44;5027560;28;20057;-86
2021/12/19 10:57:07;;;;;;;3.50;1.83;;;;;;;12.02;56.41;102728.31;5027340;28;20456;-84
2021/12/19 10:59:37;;;;;;;3.42;1.60;;;;;;;11.99;56.10;102713.94;5028698;28;20447;-85
2021/12/19 11:02:04;;;;;;;3.42;1.70;;;;;;;12.02;56.40;102719.25;5029089;28;20041;-85
2021/12/19 11:04:35;;;;;;;3.20;1.83;;;;;;;12.05;56.20;102709.09;5012090;28;20064;-84
2021/12/19 11:07:03;;;;;;;4.20;2.00;;;;;;;12.05;56.09;102711.84;5031802;28;20059;-85
2021/12/19 11:09:34;;;;;;;3.00;1.55;;;;;;;12.07;56.18;102709.94;5053896;28;20041;-81
2021/12/19 11:12:10;;;;;;;2.75;1.58;;;;;;;12.10;56.16;102698.91;5029960;28;20059;-82
2021/12/19 11:14:44;;;;;;;4.00;1.55;;;;;;;12.10;56.24;102700.75;5029289;28;20057;-83
2021/12/19 11:17:25;;;;;;;3.33;1.50;;;;;;;12.11;56.15;102697.06;5023128;28;20049;-83
2021/12/19 11:19:54;;;;;;;3.15;1.73;;;;;;;12.10;55.81;102696.19;5025643;28;20053;-84
2021/12/19 11:22:25;;;;;;;3.08;1.35;;;;;;;12.13;55.75;102696.03;5029674;28;20080;-83
2021/12/19 11:24:54;;;;;;;3.78;1.70;;;;;;;12.13;55.98;102687.88;5026883;28;20045;-84
2021/12/19 11:27:22;;;;;;;3.22;1.50;;;;;;;12.13;55.75;102673.38;5029324;28;20114;-84
2021/12/19 11:29:53;;;;;;;2.83;1.50;;;;;;;12.16;55.67;102675.97;5037894;28;20049;-86
2021/12/19 11:32:32;;;;;;;3.53;1.90;;;;;;;12.16;55.91;102675.97;5028103;28;20048;-85
2021/12/19 11:35:10;;;;;;;4.13;1.85;;;;;;;12.15;55.77;102671.47;5017684;28;20057;-83
2021/12/19 11:37:49;;;;;;;3.35;1.70;;;;;;;12.15;55.39;102671.47;5024245;28;20111;-85
2021/12/19 11:40:19;;;;;;;4.30;2.05;;;;;;;12.14;56.07;102666.97;5028359;28;20042;-83
2021/12/19 11:42:46;;;;;;;3.72;2.00;;;;;;;12.12;55.83;102658.88;5012085;28;20085;-84
2021/12/19 11:45:38;;;;;;;3.35;1.80;;;;;;;12.14;55.91;102661.53;5037974;28;20225;-84
2021/12/19 11:50:53;;;;;;;3.35;1.80;;;;;;;12.10;55.65;102659.91;5031379;28;20492;-83
2021/12/19 11:53:39;;;;;;;2.65;1.70;;;;;;;12.12;55.82;102660.72;5018938;28;20057;-84
2021/12/19 11:56:09;;;;;;;3.97;2.00;;;;;;;12.11;56.09;102653.50;5029889;28;20150;-81
2021/12/19 11:58:45;;;;;;;3.47;1.60;;;;;;;12.10;55.70;102651.75;5022169;28;20460;-85
2021/12/19 12:01:22;;;;;;;3.70;1.77;;;;;;;12.10;56.00;102658.09;5009253;28;20041;-82
2021/12/19 12:03:58;;;;;;;3.35;1.60;;;;;;;12.11;55.45;102654.38;5007356;28;20077;-86
2021/12/19 12:06:35;;;;;;;3.38;1.77;;;;;;;12.11;55.30;102659.81;5033344;28;20111;-86
2021/12/19 12:09:11;;;;;;;2.72;1.52;;;;;;;12.11;55.66;102648.94;5011734;28;20064;-85
2021/12/19 12:12:01;;;;;;;2.92;1.48;;;;;;;12.09;55.26;102650.88;5015506;28;20103;-85
2021/12/19 12:14:31;;;;;;;3.00;1.50;;;;;;;12.08;55.72;102646.38;5030656;28;20037;-85
2021/12/19 12:17:03;;;;;;;2.40;1.30;;;;;;;12.09;55.45;102642.69;5016987;28;20053;-85
2021/12/19 12:19:42;;;;;;;2.13;1.30;;;;;;;12.09;55.74;102642.69;5023675;28;20484;-86
2021/12/19 12:25:34;;;;;;;2.75;1.35;;;;;;;12.07;55.62;102632.81;5011274;28;20072;-86
2021/12/19 12:28:05;;;;;;;2.35;1.40;;;;;;;12.08;55.56;102623.69;5029627;28;20042;-87
2021/12/19 12:30:52;;;;;;;2.65;1.55;;;;;;;12.09;55.18;102617.31;5049335;28;20041;-87
2021/12/19 12:33:28;;;;;;;1.50;1.00;;;;;;;12.05;55.71;102611.09;5028007;28;20560;-87
2021/12/19 12:35:57;;;;;;;2.33;1.20;;;;;;;12.06;55.21;102606.53;5048512;28;20267;-86
2021/12/19 12:38:26;;;;;;;2.50;1.30;;;;;;;12.06;55.36;102603.81;5016954;28;20046;-87
2021/12/19 12:41:01;;;;;;;3.45;1.20;;;;;;;12.06;55.30;102606.53;5018049;28;20454;-86
2021/12/19 12:43:36;;;;;;;2.08;1.20;;;;;;;12.06;55.15;102601.09;5016519;28;20096;-90
2021/12/19 12:46:14;;;;;;;2.70;1.60;;;;;;;12.07;55.24;102609.19;5039664;28;20068;-84
2021/12/19 12:48:48;;;;;;;3.63;2.33;;;;;;;12.03;55.51;102606.66;5033228;28;20107;-88
2021/12/19 12:51:36;;;;;;;3.65;1.88;;;;;;;12.03;55.32;102603.94;5011826;28;20095;-88
2021/12/19 12:54:08;;;;;;;5.25;2.10;;;;;;;12.03;55.57;102602.09;5018893;28;20043;-88